createdAt,value
2022-11-24T00:00:50.119Z,99.90
2022-11-24T00:03:17.235Z,99.90
2022-11-24T00:05:44.277Z,99.90
2022-11-24T00:08:11.688Z,99.90
2022-11-24T00:10:38.417Z,99.90
2022-11-24T00:13:05.111Z,99.90
2022-11-24T00:15:31.853Z,99.90
2022-11-24T00:17:58.547Z,99.90
2022-11-24T00:20:25.287Z,99.90
2022-11-24T00:22:52.000Z,99.90
2022-11-24T00:25:18.711Z,99.90
2022-11-24T00:27:45.705Z,99.90
2022-11-24T00:30:12.725Z,99.90
2022-11-24T00:32:39.421Z,99.90
2022-11-24T00:35:07.627Z,99.90
2022-11-24T00:37:34.400Z,99.90
2022-11-24T00:40:01.123Z,99.90
2022-11-24T00:42:27.884Z,99.90
2022-11-24T00:44:54.572Z,99.90
2022-11-24T00:47:21.406Z,99.90
2022-11-24T00:49:48.169Z,99.90
2022-11-24T00:52:14.872Z,99.90
2022-11-24T00:54:41.759Z,99.90
2022-11-24T00:57:08.452Z,99.90
2022-11-24T00:59:35.391Z,99.90
2022-11-24T01:02:02.188Z,99.90
2022-11-24T01:04:28.967Z,99.90
2022-11-24T01:06:55.980Z,99.90
2022-11-24T01:09:22.740Z,99.90
2022-11-24T01:12:01.390Z,99.90
2022-11-24T01:14:29.035Z,99.90
2022-11-24T01:16:55.855Z,99.90
2022-11-24T01:19:23.696Z,99.90
2022-11-24T01:21:50.715Z,99.90
2022-11-24T01:24:17.751Z,99.90
2022-11-24T01:26:44.762Z,99.90
2022-11-24T01:29:12.205Z,99.90
2022-11-24T01:31:39.143Z,99.90
2022-11-24T01:34:06.255Z,99.90
2022-11-24T01:36:33.278Z,99.90
2022-11-24T01:39:00.272Z,99.90
2022-11-24T01:41:27.543Z,99.90
2022-11-24T01:43:55.598Z,99.90
2022-11-24T01:46:40.770Z,99.90
2022-11-24T01:49:19.070Z,99.90
2022-11-24T01:52:07.405Z,99.90
2022-11-24T01:54:39.373Z,99.90
2022-11-24T01:57:13.217Z,99.90
2022-11-24T01:59:40.085Z,99.90
2022-11-24T02:02:07.901Z,99.90
2022-11-24T02:04:35.829Z,99.90
2022-11-24T02:07:05.731Z,99.90
2022-11-24T02:10:12.202Z,99.90
2022-11-24T02:12:41.074Z,99.90
2022-11-24T02:15:09.866Z,99.90
2022-11-24T02:17:37.409Z,99.90
2022-11-24T02:20:08.052Z,99.90
2022-11-24T02:23:01.655Z,99.90
2022-11-24T02:25:46.354Z,99.90
2022-11-24T02:28:17.307Z,99.90
2022-11-24T02:30:44.799Z,99.90
2022-11-24T02:33:12.969Z,99.90
2022-11-24T02:35:40.387Z,99.90
2022-11-24T02:38:07.225Z,99.90
2022-11-24T02:40:34.028Z,99.90
2022-11-24T02:43:09.304Z,99.90
2022-11-24T02:45:36.061Z,99.90
2022-11-24T02:48:02.779Z,99.90
2022-11-24T02:50:29.542Z,99.90
2022-11-24T02:52:56.291Z,99.90
2022-11-24T02:55:23.647Z,99.90
2022-11-24T02:57:50.794Z,99.90
2022-11-24T03:00:18.182Z,99.90
2022-11-24T03:02:45.107Z,99.90
2022-11-24T03:05:12.769Z,99.90
2022-11-24T03:07:39.675Z,99.90
2022-11-24T03:10:07.313Z,99.90
2022-11-24T03:12:34.256Z,99.90
2022-11-24T03:15:01.168Z,99.90
2022-11-24T03:17:27.943Z,99.90
2022-11-24T03:19:54.675Z,99.90
2022-11-24T03:22:21.561Z,99.90
2022-11-24T03:24:48.327Z,99.90
2022-11-24T03:27:15.112Z,99.90
2022-11-24T03:29:41.853Z,99.90
2022-11-24T03:32:08.620Z,99.90
2022-11-24T03:34:35.623Z,99.90
2022-11-24T03:37:02.495Z,99.90
2022-11-24T03:39:29.228Z,99.90
2022-11-24T03:41:56.012Z,99.90
2022-11-24T03:44:22.841Z,99.90
2022-11-24T03:46:50.931Z,99.90
2022-11-24T03:49:18.008Z,99.90
2022-11-24T03:51:44.775Z,99.90
2022-11-24T03:54:11.771Z,99.90
2022-11-24T03:56:38.548Z,99.90
2022-11-24T03:59:05.505Z,99.90
2022-11-24T04:01:32.273Z,99.90
2022-11-24T04:03:59.015Z,99.90
2022-11-24T04:06:25.911Z,99.90
2022-11-24T04:08:52.670Z,99.90
2022-11-24T04:11:38.087Z,99.90
2022-11-24T04:14:07.898Z,99.90
2022-11-24T04:16:38.800Z,99.90
2022-11-24T04:19:06.250Z,99.90
2022-11-24T04:21:32.992Z,99.90
2022-11-24T04:23:59.665Z,99.90
2022-11-24T04:26:26.351Z,99.90
2022-11-24T04:28:56.068Z,99.90
2022-11-24T04:31:22.821Z,99.90
2022-11-24T04:33:49.541Z,99.90
2022-11-24T04:36:16.234Z,99.90
2022-11-24T04:39:22.784Z,99.90
2022-11-24T04:41:29.550Z,99.90
2022-11-24T04:43:56.241Z,99.90
2022-11-24T04:46:23.076Z,99.90
2022-11-24T04:48:49.742Z,99.90
2022-11-24T04:51:16.433Z,99.90
2022-11-24T04:53:43.139Z,99.90
2022-11-24T04:56:10.016Z,99.90
2022-11-24T04:58:36.781Z,99.90
2022-11-24T05:01:08.341Z,99.90
2022-11-24T05:03:36.700Z,99.90
2022-11-24T05:06:03.686Z,99.90
2022-11-24T05:08:30.379Z,99.90
2022-11-24T05:10:57.064Z,99.90
2022-11-24T05:13:23.755Z,99.90
2022-11-24T05:15:50.563Z,99.90
2022-11-24T05:18:17.363Z,99.90
2022-11-24T05:20:46.793Z,99.90
2022-11-24T05:23:13.442Z,99.90
2022-11-24T05:25:44.841Z,99.90
2022-11-24T05:28:14.104Z,99.90
2022-11-24T05:30:41.559Z,99.90
2022-11-24T05:33:12.209Z,99.90
2022-11-24T05:35:38.953Z,99.90
2022-11-24T05:38:05.760Z,99.90
2022-11-24T05:40:32.664Z,99.90
2022-11-24T05:42:59.420Z,99.90
2022-11-24T05:45:26.250Z,99.90
2022-11-24T05:47:53.276Z,99.90
2022-11-24T05:50:21.968Z,99.90
2022-11-24T05:52:49.538Z,99.90
2022-11-24T05:55:16.772Z,99.90
2022-11-24T05:57:43.531Z,99.90
2022-11-24T06:00:12.250Z,99.90
2022-11-24T06:02:39.206Z,99.90
2022-11-24T06:05:06.215Z,99.90
2022-11-24T06:07:32.970Z,99.90
2022-11-24T06:09:59.776Z,99.90
2022-11-24T06:12:26.535Z,99.90
2022-11-24T06:14:53.342Z,99.90
2022-11-24T06:17:20.066Z,99.90
2022-11-24T06:19:50.111Z,99.90
2022-11-24T06:22:17.755Z,99.90
2022-11-24T06:24:46.060Z,99.90
2022-11-24T06:27:13.422Z,99.90
2022-11-24T06:29:41.232Z,99.90
2022-11-24T06:32:08.353Z,99.90
2022-11-24T06:34:35.696Z,99.90
2022-11-24T06:37:02.977Z,99.90
2022-11-24T06:39:29.739Z,99.90
2022-11-24T06:41:56.501Z,99.90
2022-11-24T06:44:23.248Z,99.90
2022-11-24T06:46:50.221Z,99.90
2022-11-24T06:49:17.202Z,99.90
2022-11-24T06:51:43.944Z,99.90
2022-11-24T06:54:14.975Z,99.90
2022-11-24T06:56:41.662Z,99.90
2022-11-24T06:59:15.588Z,99.90
2022-11-24T07:01:42.242Z,99.90
2022-11-24T07:04:08.886Z,99.90
2022-11-24T07:06:35.586Z,99.90
2022-11-24T07:09:02.414Z,99.90
2022-11-24T07:11:29.146Z,99.90
2022-11-24T07:14:00.055Z,99.90
2022-11-24T07:16:31.512Z,99.90
2022-11-24T07:18:59.139Z,99.90
2022-11-24T07:21:27.523Z,99.90
2022-11-24T07:23:56.365Z,99.90
2022-11-24T07:26:23.831Z,99.90
2022-11-24T07:28:51.080Z,99.90
2022-11-24T07:31:25.081Z,99.90
2022-11-24T07:33:54.485Z,99.90
2022-11-24T07:36:21.878Z,99.90
2022-11-24T07:38:48.889Z,99.90
2022-11-24T07:41:18.101Z,99.90
2022-11-24T07:43:45.079Z,99.90
2022-11-24T07:46:13.847Z,99.90
2022-11-24T07:48:40.861Z,99.90
2022-11-24T07:51:07.979Z,99.90
2022-11-24T07:53:35.727Z,99.90
2022-11-24T07:56:03.553Z,99.90
2022-11-24T07:58:33.146Z,99.90
2022-11-24T08:01:01.172Z,99.90
2022-11-24T08:03:28.122Z,99.90
2022-11-24T08:06:22.295Z,99.90
2022-11-24T08:08:43.119Z,99.90
2022-11-24T08:11:12.331Z,99.90
2022-11-24T08:13:39.567Z,99.90
2022-11-24T08:16:08.658Z,99.90
2022-11-24T08:18:36.517Z,99.90
2022-11-24T08:21:03.751Z,99.90
2022-11-24T08:23:31.732Z,99.90
2022-11-24T08:26:04.237Z,99.90
2022-11-24T08:28:31.728Z,99.90
2022-11-24T08:31:03.528Z,99.90
2022-11-24T08:33:30.786Z,99.90
2022-11-24T08:36:02.322Z,99.90
2022-11-24T08:38:29.011Z,99.90
2022-11-24T08:41:00.667Z,99.90
2022-11-24T08:43:27.779Z,99.90
2022-11-24T08:45:54.506Z,99.90
2022-11-24T08:48:21.245Z,99.90
2022-11-24T08:50:47.980Z,99.90
2022-11-24T08:53:14.782Z,99.90
2022-11-24T08:55:41.656Z,99.90
2022-11-24T08:58:08.586Z,99.90
2022-11-24T09:00:35.263Z,99.90
2022-11-24T09:03:02.063Z,99.90
2022-11-24T09:05:51.325Z,99.90
2022-11-24T09:08:15.375Z,99.90
2022-11-24T09:10:42.166Z,99.90
2022-11-24T09:13:08.859Z,99.90
2022-11-24T09:15:35.926Z,99.90
2022-11-24T09:18:02.639Z,99.90
2022-11-24T09:20:32.735Z,99.90
2022-11-24T09:22:59.528Z,99.90
2022-11-24T09:25:26.459Z,99.90
2022-11-24T09:27:54.458Z,99.90
2022-11-24T09:30:21.203Z,99.90
2022-11-24T09:32:47.934Z,99.90
2022-11-24T09:35:14.697Z,99.90
2022-11-24T09:37:43.397Z,99.90
2022-11-24T09:40:14.234Z,99.90
2022-11-24T09:42:58.992Z,99.90
2022-11-24T09:46:05.506Z,99.90
2022-11-24T09:48:43.967Z,99.90
2022-11-24T09:51:13.435Z,99.90
2022-11-24T09:53:46.964Z,99.90
2022-11-24T09:56:20.826Z,99.90
2022-11-24T09:58:53.412Z,99.90
2022-11-24T10:01:29.416Z,99.90
2022-11-24T10:04:01.134Z,99.90
2022-11-24T10:06:40.810Z,99.90
2022-11-24T10:09:55.265Z,99.90
2022-11-24T10:12:44.823Z,99.90
2022-11-24T10:15:40.427Z,99.90
2022-11-24T10:18:16.801Z,99.90
2022-11-24T10:21:08.432Z,99.90
2022-11-24T10:23:47.047Z,99.90
2022-11-24T10:26:23.585Z,99.90
2022-11-24T10:28:55.731Z,99.90
2022-11-24T10:31:30.596Z,99.90
2022-11-24T10:34:03.729Z,99.90
2022-11-24T10:36:44.853Z,99.90
2022-11-24T10:39:20.558Z,99.90
2022-11-24T10:41:50.666Z,99.90
2022-11-24T10:44:17.438Z,99.90
2022-11-24T10:46:44.565Z,99.90
2022-11-24T10:49:22.540Z,99.90
2022-11-24T10:51:52.035Z,99.90
2022-11-24T10:54:22.991Z,99.90
2022-11-24T10:56:54.798Z,99.90
2022-11-24T10:59:24.541Z,99.90
2022-11-24T11:01:55.415Z,99.90
2022-11-24T11:04:33.437Z,99.90
2022-11-24T11:07:14.800Z,99.90
2022-11-24T11:09:41.662Z,99.90
2022-11-24T11:12:42.681Z,99.90
2022-11-24T11:15:29.937Z,99.90
2022-11-24T11:17:59.760Z,99.90
2022-11-24T11:20:35.113Z,99.90
2022-11-24T11:23:14.494Z,99.90
2022-11-24T11:25:41.291Z,99.90
2022-11-24T11:28:18.820Z,99.90
2022-11-24T11:31:17.115Z,99.90
2022-11-24T11:34:10.644Z,99.90
2022-11-24T11:36:46.571Z,99.90
2022-11-24T11:39:30.296Z,99.90
2022-11-24T11:42:17.581Z,99.90
2022-11-24T11:45:01.145Z,99.90
2022-11-24T11:47:33.659Z,99.90
2022-11-24T11:50:00.500Z,99.90
2022-11-24T11:52:50.036Z,99.90
2022-11-24T11:55:36.737Z,99.90
2022-11-24T11:58:10.280Z,99.90
2022-11-24T12:00:45.464Z,99.90
2022-11-24T12:04:01.816Z,99.90
2022-11-24T12:07:07.683Z,99.90
2022-11-24T12:09:55.414Z,99.90
2022-11-24T12:12:40.182Z,99.90
2022-11-24T12:15:22.975Z,99.90
2022-11-24T12:18:55.885Z,99.90
2022-11-24T12:21:41.213Z,99.90
2022-11-24T12:24:23.905Z,99.90
2022-11-24T12:27:04.201Z,99.90
2022-11-24T12:29:42.795Z,99.90
2022-11-24T12:32:34.298Z,99.90
2022-11-24T12:35:20.085Z,99.90
2022-11-24T12:38:06.250Z,99.90
2022-11-24T12:44:00.045Z,99.90
2022-11-24T12:46:35.947Z,99.90
2022-11-24T12:49:33.164Z,99.90
2022-11-24T12:52:11.364Z,99.90
2022-11-24T12:54:40.971Z,99.90
2022-11-24T12:57:29.900Z,99.90
2022-11-24T13:00:08.264Z,99.90
2022-11-24T13:02:38.102Z,99.90
2022-11-24T13:05:18.839Z,99.90
2022-11-24T13:07:48.323Z,99.90
2022-11-24T13:10:53.709Z,99.90
2022-11-24T13:13:15.280Z,99.90
2022-11-24T13:18:47.573Z,99.90
2022-11-24T13:21:42.755Z,99.50
2022-11-24T13:24:19.798Z,99.20
2022-11-24T13:26:50.083Z,99.00
2022-11-24T13:29:37.950Z,98.80
2022-11-24T13:32:04.616Z,98.40
2022-11-24T13:34:40.829Z,98.60
2022-11-24T13:37:32.117Z,98.50
2022-11-24T13:40:11.896Z,98.30
2022-11-24T13:43:16.970Z,98.30
2022-11-24T13:45:45.110Z,98.00
2022-11-24T13:48:21.735Z,98.30
2022-11-24T13:50:54.851Z,98.40
2022-11-24T13:53:40.426Z,98.60
2022-11-24T13:56:10.080Z,98.80
2022-11-24T13:58:49.521Z,99.00
2022-11-24T14:01:24.648Z,99.20
2022-11-24T14:04:33.122Z,99.30
2022-11-24T14:07:12.044Z,99.00
2022-11-24T14:09:47.995Z,98.70
2022-11-24T14:12:14.663Z,98.30
2022-11-24T14:14:42.866Z,98.30
2022-11-24T14:17:28.487Z,98.50
2022-11-24T14:19:57.781Z,98.80
2022-11-24T14:22:33.294Z,99.20
2022-11-24T14:25:01.454Z,99.30
2022-11-24T14:27:39.159Z,99.30
2022-11-24T14:30:13.473Z,99.20
2022-11-24T14:32:40.664Z,99.00
2022-11-24T14:35:28.248Z,98.80
2022-11-24T14:37:55.524Z,98.80
2022-11-24T14:40:48.455Z,98.90
2022-11-24T14:43:21.160Z,98.90
2022-11-24T14:46:02.467Z,98.90
2022-11-24T14:48:39.880Z,98.60
2022-11-24T14:51:21.512Z,98.10
2022-11-24T14:53:53.733Z,98.30
2022-11-24T14:56:38.301Z,98.50
2022-11-24T14:59:21.364Z,98.70
2022-11-24T15:01:48.187Z,98.90
2022-11-24T15:04:54.178Z,99.10
2022-11-24T15:07:24.617Z,99.70
2022-11-24T15:10:02.498Z,99.90
2022-11-24T15:12:40.711Z,99.90
2022-11-24T15:15:13.720Z,99.90
2022-11-24T15:17:56.126Z,99.90
2022-11-24T15:20:36.032Z,99.90
2022-11-24T15:23:31.142Z,99.90
2022-11-24T15:25:58.555Z,99.90
2022-11-24T15:28:28.416Z,99.90
2022-11-24T15:30:59.429Z,99.90
2022-11-24T15:33:26.951Z,99.90
2022-11-24T15:35:53.975Z,99.90
2022-11-24T15:38:21.589Z,99.90
2022-11-24T15:40:49.775Z,99.90
2022-11-24T15:43:22.597Z,99.90
2022-11-24T15:45:49.492Z,99.90
2022-11-24T15:48:18.118Z,99.90
2022-11-24T15:50:46.833Z,99.90
2022-11-24T15:53:44.208Z,99.90
2022-11-24T15:56:28.764Z,99.90
2022-11-24T15:58:55.639Z,99.90
2022-11-24T16:01:24.416Z,99.90
2022-11-24T16:03:51.106Z,99.90
2022-11-24T16:06:24.619Z,99.90
2022-11-24T16:08:52.615Z,99.90
2022-11-24T16:11:20.052Z,99.90
2022-11-24T16:13:52.441Z,99.90
2022-11-24T16:16:20.750Z,99.90
2022-11-24T16:18:47.527Z,99.90
2022-11-24T16:21:14.233Z,99.90
2022-11-24T16:23:40.968Z,99.90
2022-11-24T16:26:07.977Z,99.90
2022-11-24T16:28:34.658Z,99.90
2022-11-24T16:31:01.540Z,99.90
2022-11-24T16:33:31.686Z,99.90
2022-11-24T16:35:58.695Z,99.90
2022-11-24T16:38:25.659Z,99.90
2022-11-24T16:40:56.116Z,99.90
2022-11-24T16:43:22.902Z,99.90
2022-11-24T16:46:16.869Z,99.90
2022-11-24T16:48:45.409Z,99.90
2022-11-24T16:51:12.871Z,99.90
2022-11-24T16:53:40.055Z,99.90
2022-11-24T16:56:07.462Z,99.90
2022-11-24T16:58:36.659Z,99.90
2022-11-24T17:01:08.894Z,99.90
2022-11-24T17:03:39.152Z,99.90
2022-11-24T17:06:08.452Z,99.90
2022-11-24T17:08:37.084Z,99.90
2022-11-24T17:11:18.111Z,99.90
2022-11-24T17:13:46.972Z,99.90
2022-11-24T17:16:16.107Z,99.90
2022-11-24T17:18:43.545Z,99.90
2022-11-24T17:21:15.899Z,99.90
2022-11-24T17:23:44.282Z,99.90
2022-11-24T17:26:13.448Z,99.90
2022-11-24T17:28:40.756Z,99.90
2022-11-24T17:31:35.772Z,99.90
2022-11-24T17:34:06.164Z,99.90
2022-11-24T17:36:34.321Z,99.90
2022-11-24T17:39:09.882Z,99.90
2022-11-24T17:41:36.836Z,99.90
2022-11-24T17:44:04.012Z,99.90
2022-11-24T17:46:31.349Z,99.90
2022-11-24T17:48:58.484Z,99.90
2022-11-24T17:51:26.861Z,99.90
2022-11-24T17:53:54.750Z,99.90
2022-11-24T17:56:24.009Z,99.90
2022-11-24T17:58:55.717Z,99.90
2022-11-24T18:01:22.966Z,99.90
2022-11-24T18:03:53.476Z,99.90
2022-11-24T18:06:24.067Z,99.90
2022-11-24T18:08:51.706Z,99.90
2022-11-24T18:11:30.645Z,99.90
2022-11-24T18:14:01.694Z,99.90
2022-11-24T18:16:31.308Z,99.90
2022-11-24T18:19:09.836Z,99.90
2022-11-24T18:21:39.366Z,99.90
2022-11-24T18:24:07.122Z,99.90
2022-11-24T18:26:39.343Z,99.90
2022-11-24T18:29:06.059Z,99.90
2022-11-24T18:31:35.401Z,99.90
2022-11-24T18:34:04.454Z,99.90
2022-11-24T18:36:31.830Z,99.90
2022-11-24T18:39:03.563Z,99.90
2022-11-24T18:41:30.575Z,99.90
2022-11-24T18:44:02.431Z,99.90
2022-11-24T18:46:29.284Z,99.90
2022-11-24T18:49:02.451Z,99.90
2022-11-24T18:51:29.986Z,99.90
2022-11-24T18:53:59.922Z,99.90
2022-11-24T18:56:27.329Z,99.90
2022-11-24T18:58:55.661Z,99.90
2022-11-24T19:01:24.862Z,99.90
2022-11-24T19:03:54.705Z,99.90
2022-11-24T19:06:32.627Z,99.90
2022-11-24T19:09:02.690Z,99.90
2022-11-24T19:11:33.630Z,99.90
2022-11-24T19:14:01.304Z,99.90
2022-11-24T19:16:28.022Z,99.90
2022-11-24T19:19:02.570Z,99.90
2022-11-24T19:21:34.588Z,99.90
2022-11-24T19:24:05.448Z,99.90
2022-11-24T19:26:35.002Z,99.90
2022-11-24T19:29:05.598Z,99.90
2022-11-24T19:31:32.683Z,99.90
2022-11-24T19:34:03.541Z,99.90
2022-11-24T19:36:30.835Z,99.90
2022-11-24T19:38:59.491Z,99.90
2022-11-24T19:41:31.017Z,99.90
2022-11-24T19:43:59.125Z,99.90
2022-11-24T19:46:29.847Z,99.90
2022-11-24T19:49:00.243Z,99.90
2022-11-24T19:51:32.178Z,99.90
2022-11-24T19:54:00.125Z,99.90
2022-11-24T19:56:29.086Z,99.90
2022-11-24T19:58:56.640Z,99.90
2022-11-24T20:01:30.963Z,99.90
2022-11-24T20:04:06.892Z,99.90
2022-11-24T20:06:36.828Z,99.90
2022-11-24T20:09:06.244Z,99.90
2022-11-24T20:11:33.004Z,99.90
2022-11-24T20:13:59.862Z,99.90
2022-11-24T20:16:30.065Z,99.90
2022-11-24T20:19:01.716Z,99.90
2022-11-24T20:21:31.492Z,99.90
2022-11-24T20:24:07.591Z,99.90
2022-11-24T20:26:37.996Z,99.90
2022-11-24T20:29:05.590Z,99.90
2022-11-24T20:31:38.250Z,99.90
2022-11-24T20:34:07.163Z,99.90
2022-11-24T20:36:35.631Z,99.90
2022-11-24T20:39:05.902Z,99.90
2022-11-24T20:41:35.135Z,99.90
2022-11-24T20:44:05.166Z,99.90
2022-11-24T20:46:33.774Z,99.90
2022-11-24T20:49:01.012Z,99.90
2022-11-24T20:51:29.995Z,99.90
2022-11-24T20:54:00.243Z,99.90
2022-11-24T20:56:32.604Z,99.90
2022-11-24T20:59:00.195Z,99.90
2022-11-24T21:01:30.150Z,99.90
2022-11-24T21:03:59.519Z,99.90
2022-11-24T21:06:28.069Z,99.90
2022-11-24T21:09:00.419Z,99.90
2022-11-24T21:11:30.334Z,99.90
2022-11-24T21:13:57.262Z,99.90
2022-11-24T21:16:26.800Z,99.90
2022-11-24T21:18:56.344Z,99.90
2022-11-24T21:21:23.997Z,99.90
2022-11-24T21:23:51.295Z,99.90
2022-11-24T21:26:19.024Z,99.90
2022-11-24T21:28:47.237Z,99.90
2022-11-24T21:31:17.465Z,99.90
2022-11-24T21:34:14.371Z,99.90
2022-11-24T21:36:44.679Z,99.90
2022-11-24T21:39:16.368Z,99.90
2022-11-24T21:41:43.525Z,99.90
2022-11-24T21:44:14.056Z,99.90
2022-11-24T21:46:56.101Z,99.90
2022-11-24T21:49:23.100Z,99.90
2022-11-24T21:51:55.344Z,99.90
2022-11-24T21:54:22.831Z,99.90
2022-11-24T21:56:49.478Z,99.90
2022-11-24T21:59:16.257Z,99.90
2022-11-24T22:01:43.007Z,99.90
2022-11-24T22:04:10.018Z,99.90
2022-11-24T22:06:36.921Z,99.90
2022-11-24T22:09:03.676Z,99.90
2022-11-24T22:11:30.352Z,99.90
2022-11-24T22:13:57.164Z,99.90
2022-11-24T22:16:25.725Z,99.90
2022-11-24T22:18:52.786Z,99.90
2022-11-24T22:21:29.836Z,99.90
2022-11-24T22:23:56.907Z,99.90
2022-11-24T22:26:24.190Z,99.90
2022-11-24T22:28:51.774Z,99.90
2022-11-24T22:31:27.189Z,99.90
2022-11-24T22:33:55.085Z,99.90
2022-11-24T22:36:25.975Z,99.90
2022-11-24T22:38:56.525Z,99.90
2022-11-24T22:41:23.906Z,99.90
2022-11-24T22:43:51.371Z,99.90
2022-11-24T22:46:20.285Z,99.90
2022-11-24T22:48:48.623Z,99.90
2022-11-24T22:51:20.888Z,99.90
2022-11-24T22:53:48.982Z,99.90
2022-11-24T22:56:16.091Z,99.90
2022-11-24T22:58:43.297Z,99.90
2022-11-24T23:01:21.764Z,99.90
2022-11-24T23:03:53.644Z,99.90
2022-11-24T23:06:25.757Z,99.90
2022-11-24T23:08:53.461Z,99.90
2022-11-24T23:11:27.359Z,99.90
2022-11-24T23:14:02.488Z,99.90
2022-11-24T23:16:29.858Z,99.90
2022-11-24T23:18:56.792Z,99.90
2022-11-24T23:21:28.836Z,99.90
2022-11-24T23:23:56.109Z,99.90
2022-11-24T23:26:28.815Z,99.90
2022-11-24T23:28:55.887Z,99.90
2022-11-24T23:31:27.370Z,99.90
2022-11-24T23:33:54.860Z,99.90
2022-11-24T23:36:22.015Z,99.90
2022-11-24T23:38:49.526Z,99.90
2022-11-24T23:41:19.347Z,99.90
2022-11-24T23:43:46.634Z,99.90
2022-11-24T23:46:17.832Z,99.90
2022-11-24T23:48:45.036Z,99.90
2022-11-24T23:51:14.123Z,99.90
2022-11-24T23:53:41.530Z,99.90
2022-11-24T23:56:11.545Z,99.90
2022-11-24T23:58:38.368Z,99.90
